Terminal Aerodrome Forecast
Issued by NWS Kansas City/Pleasant Hill, MO

Home | Current Version | Previous Version | Text Only | Print | Product List | Glossary Off
Versions: 1 2 3 4 5 6 7 8 9 10 11 12 13 14 15 16 17 18 19 20

000
FTUS43 KEAX 031128
TAFMCI
TAF
KMCI 031128Z 0312/0412 20007KT P6SM FEW100
     FM032000 05007KT P6SM VCTS SCT050CB
     FM040100 10006KT P6SM VCTS SCT050CB=

USA.gov is the U.S. government's official web portal to all federal, state and local government web resources and services.